sensor_id;sensor_type;location;lat;lon;timestamp;P1;durP1;ratioP1;P2;durP2;ratioP2
43678;SDS011;29279;50.858;4.392;2023-02-01T00:01:54;41.40;;;10.43;;
43678;SDS011;29279;50.858;4.392;2023-02-01T00:04:20;41.25;;;9.52;;
43678;SDS011;29279;50.858;4.392;2023-02-01T00:06:46;32.67;;;10.00;;
43678;SDS011;29279;50.858;4.392;2023-02-01T00:09:12;40.17;;;11.15;;
43678;SDS011;29279;50.858;4.392;2023-02-01T00:11:38;40.60;;;10.43;;
43678;SDS011;29279;50.858;4.392;2023-02-01T00:14:04;29.35;;;10.57;;
43678;SDS011;29279;50.858;4.392;2023-02-01T00:16:30;35.42;;;10.73;;
43678;SDS011;29279;50.858;4.392;2023-02-01T00:19:00;41.75;;;11.48;;
43678;SDS011;29279;50.858;4.392;2023-02-01T00:21:34;37.45;;;10.48;;
43678;SDS011;29279;50.858;4.392;2023-02-01T00:24:00;38.70;;;10.63;;
43678;SDS011;29279;50.858;4.392;2023-02-01T00:29:01;33.58;;;11.00;;
43678;SDS011;29279;50.858;4.392;2023-02-01T00:31:28;39.05;;;12.82;;
43678;SDS011;29279;50.858;4.392;2023-02-01T00:33:54;36.67;;;11.57;;
43678;SDS011;29279;50.858;4.392;2023-02-01T00:36:19;45.40;;;12.70;;
43678;SDS011;29279;50.858;4.392;2023-02-01T00:38:45;34.80;;;10.90;;
43678;SDS011;29279;50.858;4.392;2023-02-01T00:41:13;28.55;;;10.32;;
43678;SDS011;29279;50.858;4.392;2023-02-01T00:43:43;40.63;;;11.02;;
43678;SDS011;29279;50.858;4.392;2023-02-01T00:46:10;37.63;;;10.10;;
43678;SDS011;29279;50.858;4.392;2023-02-01T00:48:37;43.55;;;10.23;;
43678;SDS011;29279;50.858;4.392;2023-02-01T00:51:03;39.05;;;9.25;;
43678;SDS011;29279;50.858;4.392;2023-02-01T00:53:30;37.50;;;8.50;;
43678;SDS011;29279;50.858;4.392;2023-02-01T00:55:56;39.42;;;8.90;;
43678;SDS011;29279;50.858;4.392;2023-02-01T00:58:22;35.22;;;7.78;;
43678;SDS011;29279;50.858;4.392;2023-02-01T01:03:32;26.73;;;7.80;;
43678;SDS011;29279;50.858;4.392;2023-02-01T01:06:00;36.92;;;9.13;;
43678;SDS011;29279;50.858;4.392;2023-02-01T01:08:27;33.90;;;7.13;;
43678;SDS011;29279;50.858;4.392;2023-02-01T01:10:53;34.22;;;8.38;;
43678;SDS011;29279;50.858;4.392;2023-02-01T01:13:18;25.20;;;6.88;;
43678;SDS011;29279;50.858;4.392;2023-02-01T01:15:45;38.08;;;7.68;;
43678;SDS011;29279;50.858;4.392;2023-02-01T01:18:10;36.85;;;8.45;;
43678;SDS011;29279;50.858;4.392;2023-02-01T01:20:37;30.38;;;7.95;;
43678;SDS011;29279;50.858;4.392;2023-02-01T01:23:04;28.30;;;7.53;;
43678;SDS011;29279;50.858;4.392;2023-02-01T01:25:31;34.60;;;8.23;;
43678;SDS011;29279;50.858;4.392;2023-02-01T01:27:57;30.42;;;7.85;;
43678;SDS011;29279;50.858;4.392;2023-02-01T01:30:23;36.88;;;7.50;;
43678;SDS011;29279;50.858;4.392;2023-02-01T01:32:49;32.35;;;6.63;;
43678;SDS011;29279;50.858;4.392;2023-02-01T01:35:14;37.92;;;7.22;;
43678;SDS011;29279;50.858;4.392;2023-02-01T01:37:40;32.03;;;6.15;;
43678;SDS011;29279;50.858;4.392;2023-02-01T01:40:06;32.70;;;6.43;;
43678;SDS011;29279;50.858;4.392;2023-02-01T01:42:37;28.05;;;5.68;;
43678;SDS011;29279;50.858;4.392;2023-02-01T01:47:33;36.60;;;6.18;;
43678;SDS011;29279;50.858;4.392;2023-02-01T01:50:05;29.25;;;5.93;;
43678;SDS011;29279;50.858;4.392;2023-02-01T01:52:33;30.90;;;5.97;;
43678;SDS011;29279;50.858;4.392;2023-02-01T01:55:00;33.58;;;5.93;;
43678;SDS011;29279;50.858;4.392;2023-02-01T01:57:27;22.65;;;4.82;;
43678;SDS011;29279;50.858;4.392;2023-02-01T02:00:19;27.30;;;5.30;;
43678;SDS011;29279;50.858;4.392;2023-02-01T02:02:45;20.98;;;5.03;;
43678;SDS011;29279;50.858;4.392;2023-02-01T02:05:12;31.70;;;5.18;;
43678;SDS011;29279;50.858;4.392;2023-02-01T02:07:40;25.38;;;4.60;;
43678;SDS011;29279;50.858;4.392;2023-02-01T02:10:10;29.50;;;5.75;;
43678;SDS011;29279;50.858;4.392;2023-02-01T02:12:41;36.20;;;4.97;;
43678;SDS011;29279;50.858;4.392;2023-02-01T02:15:09;24.98;;;3.65;;
43678;SDS011;29279;50.858;4.392;2023-02-01T02:17:54;29.77;;;5.55;;
43678;SDS011;29279;50.858;4.392;2023-02-01T02:26:22;30.42;;;5.05;;
43678;SDS011;29279;50.858;4.392;2023-02-01T02:36:44;30.65;;;5.32;;
43678;SDS011;29279;50.858;4.392;2023-02-01T02:39:16;28.23;;;4.63;;
43678;SDS011;29279;50.858;4.392;2023-02-01T02:42:08;31.77;;;5.95;;
43678;SDS011;29279;50.858;4.392;2023-02-01T02:56:28;28.75;;;5.45;;
43678;SDS011;29279;50.858;4.392;2023-02-01T02:59:14;33.03;;;5.70;;
43678;SDS011;29279;50.858;4.392;2023-02-01T03:02:03;32.20;;;5.25;;
43678;SDS011;29279;50.858;4.392;2023-02-01T03:04:51;28.67;;;4.43;;
43678;SDS011;29279;50.858;4.392;2023-02-01T03:13:05;30.40;;;5.05;;
43678;SDS011;29279;50.858;4.392;2023-02-01T03:15:42;44.75;;;7.20;;
43678;SDS011;29279;50.858;4.392;2023-02-01T03:18:21;36.83;;;5.40;;
43678;SDS011;29279;50.858;4.392;2023-02-01T03:21:10;40.30;;;5.53;;
43678;SDS011;29279;50.858;4.392;2023-02-01T03:23:41;24.70;;;4.75;;
43678;SDS011;29279;50.858;4.392;2023-02-01T03:26:10;30.88;;;4.88;;
43678;SDS011;29279;50.858;4.392;2023-02-01T03:28:41;32.88;;;4.68;;
43678;SDS011;29279;50.858;4.392;2023-02-01T03:31:14;35.85;;;5.35;;
43678;SDS011;29279;50.858;4.392;2023-02-01T03:33:40;25.67;;;4.80;;
43678;SDS011;29279;50.858;4.392;2023-02-01T03:42:24;32.58;;;5.00;;
43678;SDS011;29279;50.858;4.392;2023-02-01T03:44:52;28.48;;;4.78;;
43678;SDS011;29279;50.858;4.392;2023-02-01T03:47:26;22.50;;;4.18;;
43678;SDS011;29279;50.858;4.392;2023-02-01T03:52:47;40.28;;;5.05;;
43678;SDS011;29279;50.858;4.392;2023-02-01T03:55:14;30.35;;;4.93;;
43678;SDS011;29279;50.858;4.392;2023-02-01T03:57:43;30.02;;;5.90;;
43678;SDS011;29279;50.858;4.392;2023-02-01T04:02:46;18.23;;;4.45;;
43678;SDS011;29279;50.858;4.392;2023-02-01T04:05:13;34.63;;;6.07;;
43678;SDS011;29279;50.858;4.392;2023-02-01T04:07:38;36.97;;;6.80;;
43678;SDS011;29279;50.858;4.392;2023-02-01T04:10:04;34.72;;;4.95;;
43678;SDS011;29279;50.858;4.392;2023-02-01T04:12:30;43.53;;;5.40;;
43678;SDS011;29279;50.858;4.392;2023-02-01T04:14:56;27.65;;;5.28;;
43678;SDS011;29279;50.858;4.392;2023-02-01T04:17:21;40.35;;;5.32;;
43678;SDS011;29279;50.858;4.392;2023-02-01T04:19:47;29.83;;;4.18;;
43678;SDS011;29279;50.858;4.392;2023-02-01T04:22:13;36.67;;;5.13;;
43678;SDS011;29279;50.858;4.392;2023-02-01T04:24:39;35.75;;;5.00;;
43678;SDS011;29279;50.858;4.392;2023-02-01T04:27:04;36.40;;;5.82;;
43678;SDS011;29279;50.858;4.392;2023-02-01T04:29:30;35.67;;;5.50;;
43678;SDS011;29279;50.858;4.392;2023-02-01T04:31:55;27.92;;;4.55;;
43678;SDS011;29279;50.858;4.392;2023-02-01T04:34:21;35.03;;;4.55;;
43678;SDS011;29279;50.858;4.392;2023-02-01T04:36:48;30.13;;;5.25;;
43678;SDS011;29279;50.858;4.392;2023-02-01T04:39:14;39.70;;;6.20;;
43678;SDS011;29279;50.858;4.392;2023-02-01T04:41:39;42.70;;;7.15;;
43678;SDS011;29279;50.858;4.392;2023-02-01T04:44:05;34.17;;;5.97;;
43678;SDS011;29279;50.858;4.392;2023-02-01T04:46:31;39.35;;;5.70;;
43678;SDS011;29279;50.858;4.392;2023-02-01T04:48:57;37.92;;;5.63;;
43678;SDS011;29279;50.858;4.392;2023-02-01T04:51:22;27.65;;;4.50;;
43678;SDS011;29279;50.858;4.392;2023-02-01T04:53:48;31.55;;;4.53;;
43678;SDS011;29279;50.858;4.392;2023-02-01T04:56:14;28.73;;;4.82;;
43678;SDS011;29279;50.858;4.392;2023-02-01T04:58:39;35.53;;;5.38;;
43678;SDS011;29279;50.858;4.392;2023-02-01T05:01:05;33.83;;;5.97;;
43678;SDS011;29279;50.858;4.392;2023-02-01T05:03:32;38.05;;;4.80;;
43678;SDS011;29279;50.858;4.392;2023-02-01T05:05:58;34.22;;;4.85;;
43678;SDS011;29279;50.858;4.392;2023-02-01T05:08:25;33.42;;;4.97;;
43678;SDS011;29279;50.858;4.392;2023-02-01T05:10:51;30.58;;;5.75;;
43678;SDS011;29279;50.858;4.392;2023-02-01T05:13:17;43.50;;;5.63;;
43678;SDS011;29279;50.858;4.392;2023-02-01T05:16:01;36.65;;;5.30;;
43678;SDS011;29279;50.858;4.392;2023-02-01T05:18:27;38.40;;;4.72;;
43678;SDS011;29279;50.858;4.392;2023-02-01T05:20:53;39.22;;;4.85;;
43678;SDS011;29279;50.858;4.392;2023-02-01T05:23:20;40.63;;;5.70;;
43678;SDS011;29279;50.858;4.392;2023-02-01T05:25:45;35.60;;;4.47;;
43678;SDS011;29279;50.858;4.392;2023-02-01T05:28:11;39.60;;;6.80;;
43678;SDS011;29279;50.858;4.392;2023-02-01T05:30:37;38.90;;;5.25;;
43678;SDS011;29279;50.858;4.392;2023-02-01T05:33:02;41.10;;;6.70;;
43678;SDS011;29279;50.858;4.392;2023-02-01T05:35:29;31.88;;;6.00;;
43678;SDS011;29279;50.858;4.392;2023-02-01T05:37:54;33.45;;;5.07;;
43678;SDS011;29279;50.858;4.392;2023-02-01T05:40:20;31.55;;;6.03;;
43678;SDS011;29279;50.858;4.392;2023-02-01T05:42:46;31.48;;;5.28;;
43678;SDS011;29279;50.858;4.392;2023-02-01T05:45:12;35.25;;;5.57;;
43678;SDS011;29279;50.858;4.392;2023-02-01T05:47:38;39.97;;;5.43;;
43678;SDS011;29279;50.858;4.392;2023-02-01T05:50:04;35.00;;;5.43;;
43678;SDS011;29279;50.858;4.392;2023-02-01T05:52:30;32.05;;;6.03;;
43678;SDS011;29279;50.858;4.392;2023-02-01T05:54:56;33.00;;;6.18;;
43678;SDS011;29279;50.858;4.392;2023-02-01T05:57:21;40.10;;;6.85;;
43678;SDS011;29279;50.858;4.392;2023-02-01T05:59:47;32.38;;;5.28;;
43678;SDS011;29279;50.858;4.392;2023-02-01T06:02:14;35.08;;;4.43;;
43678;SDS011;29279;50.858;4.392;2023-02-01T06:04:40;30.40;;;5.22;;
43678;SDS011;29279;50.858;4.392;2023-02-01T06:07:07;38.15;;;6.88;;
43678;SDS011;29279;50.858;4.392;2023-02-01T06:09:35;37.65;;;4.90;;
43678;SDS011;29279;50.858;4.392;2023-02-01T06:12:01;28.38;;;4.28;;
43678;SDS011;29279;50.858;4.392;2023-02-01T06:14:28;37.45;;;4.63;;
43678;SDS011;29279;50.858;4.392;2023-02-01T06:16:54;34.03;;;5.32;;
43678;SDS011;29279;50.858;4.392;2023-02-01T06:19:20;31.60;;;4.72;;
43678;SDS011;29279;50.858;4.392;2023-02-01T06:21:47;30.88;;;5.05;;
43678;SDS011;29279;50.858;4.392;2023-02-01T06:24:12;28.38;;;5.43;;
43678;SDS011;29279;50.858;4.392;2023-02-01T06:26:38;85.00;;;8.60;;
43678;SDS011;29279;50.858;4.392;2023-02-01T06:29:05;34.85;;;5.35;;
43678;SDS011;29279;50.858;4.392;2023-02-01T06:31:31;34.03;;;6.07;;
43678;SDS011;29279;50.858;4.392;2023-02-01T06:33:57;35.70;;;5.47;;
43678;SDS011;29279;50.858;4.392;2023-02-01T06:36:23;28.40;;;4.63;;
43678;SDS011;29279;50.858;4.392;2023-02-01T06:38:49;36.30;;;5.78;;
43678;SDS011;29279;50.858;4.392;2023-02-01T06:41:14;33.67;;;5.20;;
43678;SDS011;29279;50.858;4.392;2023-02-01T06:43:41;31.33;;;4.63;;
43678;SDS011;29279;50.858;4.392;2023-02-01T06:46:07;23.85;;;4.68;;
43678;SDS011;29279;50.858;4.392;2023-02-01T06:48:36;38.03;;;4.63;;
43678;SDS011;29279;50.858;4.392;2023-02-01T06:51:01;31.75;;;5.03;;
43678;SDS011;29279;50.858;4.392;2023-02-01T06:53:27;40.60;;;4.80;;
43678;SDS011;29279;50.858;4.392;2023-02-01T06:55:54;32.92;;;5.72;;
43678;SDS011;29279;50.858;4.392;2023-02-01T06:58:27;27.83;;;5.32;;
43678;SDS011;29279;50.858;4.392;2023-02-01T07:00:57;30.95;;;6.00;;
43678;SDS011;29279;50.858;4.392;2023-02-01T07:03:23;32.38;;;4.93;;
43678;SDS011;29279;50.858;4.392;2023-02-01T07:05:48;35.33;;;5.40;;
43678;SDS011;29279;50.858;4.392;2023-02-01T07:08:14;58.50;;;6.38;;
43678;SDS011;29279;50.858;4.392;2023-02-01T07:10:40;47.72;;;6.35;;
43678;SDS011;29279;50.858;4.392;2023-02-01T07:13:06;27.15;;;4.53;;
43678;SDS011;29279;50.858;4.392;2023-02-01T07:15:31;32.72;;;4.93;;
43678;SDS011;29279;50.858;4.392;2023-02-01T07:17:57;34.65;;;5.82;;
43678;SDS011;29279;50.858;4.392;2023-02-01T07:20:23;46.03;;;6.25;;
43678;SDS011;29279;50.858;4.392;2023-02-01T07:22:49;38.90;;;6.20;;
43678;SDS011;29279;50.858;4.392;2023-02-01T07:25:20;35.47;;;7.32;;
43678;SDS011;29279;50.858;4.392;2023-02-01T07:27:46;39.72;;;4.88;;
43678;SDS011;29279;50.858;4.392;2023-02-01T07:30:11;32.88;;;5.20;;
43678;SDS011;29279;50.858;4.392;2023-02-01T07:32:37;36.10;;;5.68;;
43678;SDS011;29279;50.858;4.392;2023-02-01T07:35:03;34.72;;;5.78;;
43678;SDS011;29279;50.858;4.392;2023-02-01T07:37:29;36.75;;;5.55;;
43678;SDS011;29279;50.858;4.392;2023-02-01T07:39:55;35.40;;;5.72;;
43678;SDS011;29279;50.858;4.392;2023-02-01T07:42:21;34.83;;;5.53;;
43678;SDS011;29279;50.858;4.392;2023-02-01T07:44:47;42.35;;;5.90;;
43678;SDS011;29279;50.858;4.392;2023-02-01T07:47:12;31.65;;;4.82;;
43678;SDS011;29279;50.858;4.392;2023-02-01T07:49:38;33.17;;;5.72;;
43678;SDS011;29279;50.858;4.392;2023-02-01T07:52:04;40.85;;;5.65;;
43678;SDS011;29279;50.858;4.392;2023-02-01T07:54:29;30.58;;;5.22;;
43678;SDS011;29279;50.858;4.392;2023-02-01T07:56:55;37.58;;;5.05;;
43678;SDS011;29279;50.858;4.392;2023-02-01T07:59:21;31.63;;;5.20;;
43678;SDS011;29279;50.858;4.392;2023-02-01T08:01:46;39.78;;;7.55;;
43678;SDS011;29279;50.858;4.392;2023-02-01T08:04:12;38.13;;;5.30;;
43678;SDS011;29279;50.858;4.392;2023-02-01T08:06:38;30.33;;;5.60;;
43678;SDS011;29279;50.858;4.392;2023-02-01T08:09:05;35.03;;;5.95;;
43678;SDS011;29279;50.858;4.392;2023-02-01T08:11:33;37.50;;;6.03;;
43678;SDS011;29279;50.858;4.392;2023-02-01T08:13:59;42.45;;;6.47;;
43678;SDS011;29279;50.858;4.392;2023-02-01T08:16:25;40.45;;;6.47;;
43678;SDS011;29279;50.858;4.392;2023-02-01T08:18:51;34.13;;;5.85;;
43678;SDS011;29279;50.858;4.392;2023-02-01T08:21:18;34.83;;;6.03;;
43678;SDS011;29279;50.858;4.392;2023-02-01T08:23:46;35.35;;;5.90;;
43678;SDS011;29279;50.858;4.392;2023-02-01T08:26:31;42.60;;;5.10;;
43678;SDS011;29279;50.858;4.392;2023-02-01T08:28:58;30.67;;;5.25;;
43678;SDS011;29279;50.858;4.392;2023-02-01T08:31:26;36.55;;;4.95;;
43678;SDS011;29279;50.858;4.392;2023-02-01T08:33:54;32.63;;;5.32;;
43678;SDS011;29279;50.858;4.392;2023-02-01T08:36:24;44.85;;;5.40;;
43678;SDS011;29279;50.858;4.392;2023-02-01T08:38:52;22.98;;;5.70;;
43678;SDS011;29279;50.858;4.392;2023-02-01T08:41:18;34.13;;;7.22;;
43678;SDS011;29279;50.858;4.392;2023-02-01T08:43:46;46.08;;;5.97;;
43678;SDS011;29279;50.858;4.392;2023-02-01T08:46:12;35.38;;;5.53;;
43678;SDS011;29279;50.858;4.392;2023-02-01T08:48:39;40.28;;;6.05;;
43678;SDS011;29279;50.858;4.392;2023-02-01T08:51:06;29.25;;;6.30;;
43678;SDS011;29279;50.858;4.392;2023-02-01T08:53:33;34.22;;;5.78;;
43678;SDS011;29279;50.858;4.392;2023-02-01T08:55:59;44.55;;;6.15;;
43678;SDS011;29279;50.858;4.392;2023-02-01T08:58:25;40.25;;;5.68;;
43678;SDS011;29279;50.858;4.392;2023-02-01T09:00:51;31.70;;;5.18;;
43678;SDS011;29279;50.858;4.392;2023-02-01T09:03:17;32.38;;;5.47;;
43678;SDS011;29279;50.858;4.392;2023-02-01T09:05:43;41.25;;;5.65;;
43678;SDS011;29279;50.858;4.392;2023-02-01T09:08:09;34.28;;;5.88;;
43678;SDS011;29279;50.858;4.392;2023-02-01T09:10:39;39.67;;;6.78;;
43678;SDS011;29279;50.858;4.392;2023-02-01T09:13:06;31.67;;;4.97;;
43678;SDS011;29279;50.858;4.392;2023-02-01T09:15:34;33.53;;;5.57;;
43678;SDS011;29279;50.858;4.392;2023-02-01T09:18:00;35.10;;;5.82;;
43678;SDS011;29279;50.858;4.392;2023-02-01T09:20:26;33.85;;;6.47;;
43678;SDS011;29279;50.858;4.392;2023-02-01T09:22:52;36.67;;;5.53;;
43678;SDS011;29279;50.858;4.392;2023-02-01T09:25:19;27.90;;;5.20;;
43678;SDS011;29279;50.858;4.392;2023-02-01T09:27:45;43.67;;;7.35;;
43678;SDS011;29279;50.858;4.392;2023-02-01T09:30:11;40.63;;;6.15;;
43678;SDS011;29279;50.858;4.392;2023-02-01T09:32:37;35.33;;;6.53;;
43678;SDS011;29279;50.858;4.392;2023-02-01T09:35:02;29.15;;;6.75;;
43678;SDS011;29279;50.858;4.392;2023-02-01T09:37:28;39.70;;;6.28;;
43678;SDS011;29279;50.858;4.392;2023-02-01T09:39:54;33.28;;;5.72;;
43678;SDS011;29279;50.858;4.392;2023-02-01T09:45:21;41.97;;;7.55;;
43678;SDS011;29279;50.858;4.392;2023-02-01T09:48:15;28.17;;;7.07;;
43678;SDS011;29279;50.858;4.392;2023-02-01T09:50:46;32.30;;;5.95;;
43678;SDS011;29279;50.858;4.392;2023-02-01T09:53:30;31.60;;;5.18;;
43678;SDS011;29279;50.858;4.392;2023-02-01T09:56:07;41.38;;;5.95;;
43678;SDS011;29279;50.858;4.392;2023-02-01T09:58:44;32.47;;;5.75;;
43678;SDS011;29279;50.858;4.392;2023-02-01T10:03:45;31.85;;;5.60;;
43678;SDS011;29279;50.858;4.392;2023-02-01T10:06:24;30.98;;;6.10;;
43678;SDS011;29279;50.858;4.392;2023-02-01T10:09:14;26.45;;;5.65;;
43678;SDS011;29279;50.858;4.392;2023-02-01T10:21:18;28.25;;;5.78;;
43678;SDS011;29279;50.858;4.392;2023-02-01T10:23:58;26.65;;;5.65;;
43678;SDS011;29279;50.858;4.392;2023-02-01T10:26:38;26.00;;;5.60;;
43678;SDS011;29279;50.858;4.392;2023-02-01T10:29:18;30.85;;;6.07;;
43678;SDS011;29279;50.858;4.392;2023-02-01T10:31:45;35.75;;;5.20;;
43678;SDS011;29279;50.858;4.392;2023-02-01T10:39:18;27.88;;;4.95;;
43678;SDS011;29279;50.858;4.392;2023-02-01T10:41:44;27.98;;;4.80;;
43678;SDS011;29279;50.858;4.392;2023-02-01T10:44:19;28.15;;;5.07;;
43678;SDS011;29279;50.858;4.392;2023-02-01T10:46:51;27.05;;;5.20;;
43678;SDS011;29279;50.858;4.392;2023-02-01T10:52:17;30.35;;;5.95;;
43678;SDS011;29279;50.858;4.392;2023-02-01T10:54:52;28.60;;;5.40;;
43678;SDS011;29279;50.858;4.392;2023-02-01T10:57:22;26.50;;;4.70;;
43678;SDS011;29279;50.858;4.392;2023-02-01T10:59:51;24.70;;;4.80;;
43678;SDS011;29279;50.858;4.392;2023-02-01T11:02:28;20.80;;;4.82;;
43678;SDS011;29279;50.858;4.392;2023-02-01T11:05:01;31.90;;;4.75;;
43678;SDS011;29279;50.858;4.392;2023-02-01T11:07:29;22.52;;;3.72;;
43678;SDS011;29279;50.858;4.392;2023-02-01T11:09:55;26.02;;;3.90;;
43678;SDS011;29279;50.858;4.392;2023-02-01T11:15:14;20.23;;;4.22;;
43678;SDS011;29279;50.858;4.392;2023-02-01T11:17:45;20.38;;;3.30;;
43678;SDS011;29279;50.858;4.392;2023-02-01T11:22:56;27.58;;;4.70;;
43678;SDS011;29279;50.858;4.392;2023-02-01T11:25:22;20.65;;;4.60;;
43678;SDS011;29279;50.858;4.392;2023-02-01T11:27:49;27.15;;;4.45;;
43678;SDS011;29279;50.858;4.392;2023-02-01T11:30:36;16.65;;;3.85;;
43678;SDS011;29279;50.858;4.392;2023-02-01T11:33:09;20.83;;;4.25;;
43678;SDS011;29279;50.858;4.392;2023-02-01T11:35:39;26.95;;;4.15;;
43678;SDS011;29279;50.858;4.392;2023-02-01T11:40:44;29.08;;;4.32;;
43678;SDS011;29279;50.858;4.392;2023-02-01T11:45:41;24.38;;;3.92;;
43678;SDS011;29279;50.858;4.392;2023-02-01T11:48:17;19.58;;;4.18;;
43678;SDS011;29279;50.858;4.392;2023-02-01T11:56:05;28.23;;;3.97;;
43678;SDS011;29279;50.858;4.392;2023-02-01T12:04:18;19.48;;;3.53;;
43678;SDS011;29279;50.858;4.392;2023-02-01T12:07:20;22.25;;;3.83;;
43678;SDS011;29279;50.858;4.392;2023-02-01T12:12:48;22.20;;;3.47;;
43678;SDS011;29279;50.858;4.392;2023-02-01T12:23:53;25.20;;;3.80;;
43678;SDS011;29279;50.858;4.392;2023-02-01T12:35:13;14.98;;;3.42;;
43678;SDS011;29279;50.858;4.392;2023-02-01T12:37:54;16.48;;;3.13;;
43678;SDS011;29279;50.858;4.392;2023-02-01T12:43:43;13.10;;;2.97;;
43678;SDS011;29279;50.858;4.392;2023-02-01T12:46:31;17.97;;;3.13;;
43678;SDS011;29279;50.858;4.392;2023-02-01T12:49:15;12.40;;;3.28;;
43678;SDS011;29279;50.858;4.392;2023-02-01T12:51:50;16.77;;;2.63;;
43678;SDS011;29279;50.858;4.392;2023-02-01T12:57:06;18.10;;;3.47;;
43678;SDS011;29279;50.858;4.392;2023-02-01T12:59:46;15.52;;;3.20;;
43678;SDS011;29279;50.858;4.392;2023-02-01T13:02:25;13.63;;;3.10;;
43678;SDS011;29279;50.858;4.392;2023-02-01T13:05:17;16.40;;;2.80;;
43678;SDS011;29279;50.858;4.392;2023-02-01T13:07:49;13.93;;;3.03;;
43678;SDS011;29279;50.858;4.392;2023-02-01T13:10:33;9.90;;;2.58;;
43678;SDS011;29279;50.858;4.392;2023-02-01T13:15:47;18.60;;;2.92;;
43678;SDS011;29279;50.858;4.392;2023-02-01T13:18:26;17.13;;;2.97;;
43678;SDS011;29279;50.858;4.392;2023-02-01T13:21:08;15.65;;;2.72;;
43678;SDS011;29279;50.858;4.392;2023-02-01T13:23:39;15.13;;;2.70;;
43678;SDS011;29279;50.858;4.392;2023-02-01T13:26:06;22.50;;;3.33;;
43678;SDS011;29279;50.858;4.392;2023-02-01T13:42:52;17.02;;;2.67;;
43678;SDS011;29279;50.858;4.392;2023-02-01T13:45:24;15.80;;;2.80;;
43678;SDS011;29279;50.858;4.392;2023-02-01T13:47:53;15.07;;;2.22;;
43678;SDS011;29279;50.858;4.392;2023-02-01T13:50:28;14.85;;;2.90;;
43678;SDS011;29279;50.858;4.392;2023-02-01T13:52:58;18.42;;;3.72;;
43678;SDS011;29279;50.858;4.392;2023-02-01T13:56:01;16.88;;;3.17;;
43678;SDS011;29279;50.858;4.392;2023-02-01T13:58:28;12.52;;;2.60;;
43678;SDS011;29279;50.858;4.392;2023-02-01T14:01:39;21.15;;;3.13;;
43678;SDS011;29279;50.858;4.392;2023-02-01T14:03:47;17.83;;;3.08;;
43678;SDS011;29279;50.858;4.392;2023-02-01T14:06:39;18.63;;;3.33;;
43678;SDS011;29279;50.858;4.392;2023-02-01T14:16:39;15.48;;;3.42;;
43678;SDS011;29279;50.858;4.392;2023-02-01T14:21:52;21.13;;;3.38;;
43678;SDS011;29279;50.858;4.392;2023-02-01T14:27:06;16.90;;;3.25;;
43678;SDS011;29279;50.858;4.392;2023-02-01T14:29:44;17.27;;;2.42;;
43678;SDS011;29279;50.858;4.392;2023-02-01T14:32:26;18.88;;;2.90;;
43678;SDS011;29279;50.858;4.392;2023-02-01T14:34:57;19.60;;;3.15;;
43678;SDS011;29279;50.858;4.392;2023-02-01T14:37:28;21.02;;;3.50;;
43678;SDS011;29279;50.858;4.392;2023-02-01T14:47:42;12.13;;;3.50;;
43678;SDS011;29279;50.858;4.392;2023-02-01T14:52:46;24.13;;;3.58;;
43678;SDS011;29279;50.858;4.392;2023-02-01T14:55:26;18.10;;;3.65;;
43678;SDS011;29279;50.858;4.392;2023-02-01T14:57:58;22.23;;;3.60;;
43678;SDS011;29279;50.858;4.392;2023-02-01T15:00:28;18.35;;;3.80;;
43678;SDS011;29279;50.858;4.392;2023-02-01T15:02:56;26.73;;;3.95;;
43678;SDS011;29279;50.858;4.392;2023-02-01T15:05:41;18.88;;;2.85;;
43678;SDS011;29279;50.858;4.392;2023-02-01T15:08:11;23.17;;;3.42;;
43678;SDS011;29279;50.858;4.392;2023-02-01T15:10:43;21.10;;;4.32;;
43678;SDS011;29279;50.858;4.392;2023-02-01T15:13:24;24.60;;;3.88;;
43678;SDS011;29279;50.858;4.392;2023-02-01T15:18:37;18.15;;;3.40;;
43678;SDS011;29279;50.858;4.392;2023-02-01T15:21:04;21.05;;;3.90;;
43678;SDS011;29279;50.858;4.392;2023-02-01T15:23:30;25.27;;;3.97;;
43678;SDS011;29279;50.858;4.392;2023-02-01T15:25:57;23.48;;;4.18;;
43678;SDS011;29279;50.858;4.392;2023-02-01T15:28:24;17.15;;;3.53;;
43678;SDS011;29279;50.858;4.392;2023-02-01T15:31:00;21.92;;;3.70;;
43678;SDS011;29279;50.858;4.392;2023-02-01T15:33:28;22.55;;;3.78;;
43678;SDS011;29279;50.858;4.392;2023-02-01T15:36:07;21.40;;;3.88;;
43678;SDS011;29279;50.858;4.392;2023-02-01T15:38:36;39.35;;;5.45;;
43678;SDS011;29279;50.858;4.392;2023-02-01T15:46:12;25.88;;;4.78;;
43678;SDS011;29279;50.858;4.392;2023-02-01T15:48:42;29.23;;;5.03;;
43678;SDS011;29279;50.858;4.392;2023-02-01T15:51:11;26.17;;;4.05;;
43678;SDS011;29279;50.858;4.392;2023-02-01T15:53:43;21.98;;;5.40;;
43678;SDS011;29279;50.858;4.392;2023-02-01T15:56:21;30.70;;;4.72;;
43678;SDS011;29279;50.858;4.392;2023-02-01T15:58:56;25.55;;;4.97;;
43678;SDS011;29279;50.858;4.392;2023-02-01T16:01:25;21.95;;;3.92;;
43678;SDS011;29279;50.858;4.392;2023-02-01T16:04:01;27.02;;;4.35;;
43678;SDS011;29279;50.858;4.392;2023-02-01T16:06:52;30.10;;;3.30;;
43678;SDS011;29279;50.858;4.392;2023-02-01T16:09:20;21.38;;;3.78;;
43678;SDS011;29279;50.858;4.392;2023-02-01T16:14:23;19.67;;;4.13;;
43678;SDS011;29279;50.858;4.392;2023-02-01T16:16:51;20.55;;;3.30;;
43678;SDS011;29279;50.858;4.392;2023-02-01T16:19:18;31.20;;;4.88;;
43678;SDS011;29279;50.858;4.392;2023-02-01T16:21:44;22.80;;;3.72;;
43678;SDS011;29279;50.858;4.392;2023-02-01T16:24:10;25.75;;;4.07;;
43678;SDS011;29279;50.858;4.392;2023-02-01T16:26:37;22.98;;;4.43;;
43678;SDS011;29279;50.858;4.392;2023-02-01T16:29:03;21.10;;;3.75;;
43678;SDS011;29279;50.858;4.392;2023-02-01T16:31:33;32.53;;;5.20;;
43678;SDS011;29279;50.858;4.392;2023-02-01T16:34:03;24.10;;;4.35;;
43678;SDS011;29279;50.858;4.392;2023-02-01T16:36:30;21.65;;;4.63;;
43678;SDS011;29279;50.858;4.392;2023-02-01T16:38:57;23.05;;;3.85;;
43678;SDS011;29279;50.858;4.392;2023-02-01T16:41:24;23.85;;;3.88;;
43678;SDS011;29279;50.858;4.392;2023-02-01T16:43:50;30.10;;;4.45;;
43678;SDS011;29279;50.858;4.392;2023-02-01T16:46:18;25.98;;;4.07;;
43678;SDS011;29279;50.858;4.392;2023-02-01T16:48:54;26.90;;;4.18;;
43678;SDS011;29279;50.858;4.392;2023-02-01T16:51:22;27.15;;;6.57;;
43678;SDS011;29279;50.858;4.392;2023-02-01T16:53:50;23.55;;;3.90;;
43678;SDS011;29279;50.858;4.392;2023-02-01T16:56:17;21.92;;;5.32;;
43678;SDS011;29279;50.858;4.392;2023-02-01T16:58:45;29.08;;;4.63;;
43678;SDS011;29279;50.858;4.392;2023-02-01T17:01:12;36.25;;;4.32;;
43678;SDS011;29279;50.858;4.392;2023-02-01T17:03:40;28.10;;;5.03;;
43678;SDS011;29279;50.858;4.392;2023-02-01T17:06:06;23.02;;;5.00;;
43678;SDS011;29279;50.858;4.392;2023-02-01T17:08:36;30.98;;;4.63;;
43678;SDS011;29279;50.858;4.392;2023-02-01T17:11:09;27.67;;;5.20;;
43678;SDS011;29279;50.858;4.392;2023-02-01T17:13:37;32.20;;;5.72;;
43678;SDS011;29279;50.858;4.392;2023-02-01T17:16:08;26.08;;;4.22;;
43678;SDS011;29279;50.858;4.392;2023-02-01T17:18:38;32.15;;;5.25;;
43678;SDS011;29279;50.858;4.392;2023-02-01T17:21:04;27.73;;;4.03;;
43678;SDS011;29279;50.858;4.392;2023-02-01T17:23:30;22.63;;;4.93;;
43678;SDS011;29279;50.858;4.392;2023-02-01T17:25:56;27.77;;;5.50;;
43678;SDS011;29279;50.858;4.392;2023-02-01T17:28:22;30.65;;;5.03;;
43678;SDS011;29279;50.858;4.392;2023-02-01T17:30:48;23.33;;;4.15;;
43678;SDS011;29279;50.858;4.392;2023-02-01T17:35:53;31.92;;;6.22;;
43678;SDS011;29279;50.858;4.392;2023-02-01T17:38:20;34.78;;;6.70;;
43678;SDS011;29279;50.858;4.392;2023-02-01T17:40:45;31.27;;;5.60;;
43678;SDS011;29279;50.858;4.392;2023-02-01T17:43:12;25.58;;;5.22;;